sensor_id;sensor_type;location;lat;lon;timestamp;temperature;humidity
20070;DHT22;10195;50.868;4.382;2023-02-11T00:01:15;7.20;99.90
20070;DHT22;10195;50.868;4.382;2023-02-11T00:03:43;7.30;99.90
20070;DHT22;10195;50.868;4.382;2023-02-11T00:06:10;7.30;99.90
20070;DHT22;10195;50.868;4.382;2023-02-11T00:08:36;7.20;99.90
20070;DHT22;10195;50.868;4.382;2023-02-11T00:11:02;7.10;99.90
20070;DHT22;10195;50.868;4.382;2023-02-11T00:13:28;7.10;99.90
20070;DHT22;10195;50.868;4.382;2023-02-11T00:15:53;7.00;99.90
20070;DHT22;10195;50.868;4.382;2023-02-11T00:18:19;7.00;99.90
20070;DHT22;10195;50.868;4.382;2023-02-11T00:20:45;7.00;99.90
20070;DHT22;10195;50.868;4.382;2023-02-11T00:23:11;6.90;99.90
20070;DHT22;10195;50.868;4.382;2023-02-11T00:25:42;6.90;99.90
20070;DHT22;10195;50.868;4.382;2023-02-11T00:28:09;6.90;99.90
20070;DHT22;10195;50.868;4.382;2023-02-11T00:30:35;6.80;99.90
20070;DHT22;10195;50.868;4.382;2023-02-11T00:33:02;6.80;99.90
20070;DHT22;10195;50.868;4.382;2023-02-11T00:35:28;6.70;99.90
20070;DHT22;10195;50.868;4.382;2023-02-11T00:37:53;6.80;99.90
20070;DHT22;10195;50.868;4.382;2023-02-11T00:40:19;6.80;99.90
20070;DHT22;10195;50.868;4.382;2023-02-11T00:42:45;6.80;99.90
20070;DHT22;10195;50.868;4.382;2023-02-11T00:45:11;6.80;99.90
20070;DHT22;10195;50.868;4.382;2023-02-11T00:47:37;6.70;99.90
20070;DHT22;10195;50.868;4.382;2023-02-11T00:50:04;6.70;99.90
20070;DHT22;10195;50.868;4.382;2023-02-11T00:52:31;6.70;99.90
20070;DHT22;10195;50.868;4.382;2023-02-11T00:54:56;6.70;99.90
20070;DHT22;10195;50.868;4.382;2023-02-11T00:57:22;6.70;99.90
20070;DHT22;10195;50.868;4.382;2023-02-11T00:59:48;6.70;99.90
20070;DHT22;10195;50.868;4.382;2023-02-11T01:02:15;6.70;99.90
20070;DHT22;10195;50.868;4.382;2023-02-11T01:04:41;6.70;99.90
20070;DHT22;10195;50.868;4.382;2023-02-11T01:07:06;6.70;99.90
20070;DHT22;10195;50.868;4.382;2023-02-11T01:09:32;6.70;99.90
20070;DHT22;10195;50.868;4.382;2023-02-11T01:11:58;6.70;99.90
20070;DHT22;10195;50.868;4.382;2023-02-11T01:14:23;6.70;99.90
20070;DHT22;10195;50.868;4.382;2023-02-11T01:16:49;6.70;99.90
20070;DHT22;10195;50.868;4.382;2023-02-11T01:19:15;6.70;99.90
20070;DHT22;10195;50.868;4.382;2023-02-11T01:21:41;6.70;99.90
20070;DHT22;10195;50.868;4.382;2023-02-11T01:24:06;6.70;99.90
20070;DHT22;10195;50.868;4.382;2023-02-11T01:26:32;6.70;99.90
20070;DHT22;10195;50.868;4.382;2023-02-11T01:28:58;6.70;99.90
20070;DHT22;10195;50.868;4.382;2023-02-11T01:31:25;6.70;99.90
20070;DHT22;10195;50.868;4.382;2023-02-11T01:33:51;6.70;99.90
20070;DHT22;10195;50.868;4.382;2023-02-11T01:36:17;6.60;99.90
20070;DHT22;10195;50.868;4.382;2023-02-11T01:38:42;6.60;99.90
20070;DHT22;10195;50.868;4.382;2023-02-11T01:41:12;6.70;99.90
20070;DHT22;10195;50.868;4.382;2023-02-11T01:43:47;6.70;99.90
20070;DHT22;10195;50.868;4.382;2023-02-11T01:46:22;6.70;99.90
20070;DHT22;10195;50.868;4.382;2023-02-11T01:48:55;6.60;99.90
20070;DHT22;10195;50.868;4.382;2023-02-11T01:51:29;6.50;99.90
20070;DHT22;10195;50.868;4.382;2023-02-11T01:53:57;6.50;99.90
20070;DHT22;10195;50.868;4.382;2023-02-11T01:56:46;6.50;99.90
20070;DHT22;10195;50.868;4.382;2023-02-11T01:59:44;6.50;99.90
20070;DHT22;10195;50.868;4.382;2023-02-11T02:02:14;6.60;99.90
20070;DHT22;10195;50.868;4.382;2023-02-11T02:04:49;6.60;99.90
20070;DHT22;10195;50.868;4.382;2023-02-11T02:10:16;6.60;99.90
20070;DHT22;10195;50.868;4.382;2023-02-11T02:12:43;6.70;99.90
20070;DHT22;10195;50.868;4.382;2023-02-11T02:15:29;6.70;99.90
20070;DHT22;10195;50.868;4.382;2023-02-11T02:18:10;6.80;99.90
20070;DHT22;10195;50.868;4.382;2023-02-11T02:37:18;7.10;99.90
20070;DHT22;10195;50.868;4.382;2023-02-11T02:39:47;7.00;99.90
20070;DHT22;10195;50.868;4.382;2023-02-11T02:42:15;7.10;99.90
20070;DHT22;10195;50.868;4.382;2023-02-11T02:44:49;7.10;99.90
20070;DHT22;10195;50.868;4.382;2023-02-11T02:47:16;7.10;99.90
20070;DHT22;10195;50.868;4.382;2023-02-11T02:49:42;7.20;99.90
20070;DHT22;10195;50.868;4.382;2023-02-11T02:52:49;7.20;99.90
20070;DHT22;10195;50.868;4.382;2023-02-11T03:06:16;7.40;99.90
20070;DHT22;10195;50.868;4.382;2023-02-11T03:09:06;7.30;99.90
20070;DHT22;10195;50.868;4.382;2023-02-11T03:11:33;7.20;99.90
20070;DHT22;10195;50.868;4.382;2023-02-11T03:14:01;7.30;99.90
20070;DHT22;10195;50.868;4.382;2023-02-11T03:16:29;7.30;99.90
20070;DHT22;10195;50.868;4.382;2023-02-11T03:19:13;7.30;99.90
20070;DHT22;10195;50.868;4.382;2023-02-11T03:21:41;7.30;99.90
20070;DHT22;10195;50.868;4.382;2023-02-11T03:24:22;7.30;99.90
20070;DHT22;10195;50.868;4.382;2023-02-11T03:26:55;7.30;99.90
20070;DHT22;10195;50.868;4.382;2023-02-11T03:29:34;7.40;99.90
20070;DHT22;10195;50.868;4.382;2023-02-11T03:32:06;7.40;99.90
20070;DHT22;10195;50.868;4.382;2023-02-11T03:37:51;7.40;99.90
20070;DHT22;10195;50.868;4.382;2023-02-11T03:40:26;7.40;99.90
20070;DHT22;10195;50.868;4.382;2023-02-11T03:45:43;7.20;99.90
20070;DHT22;10195;50.868;4.382;2023-02-11T03:48:27;7.20;99.90
20070;DHT22;10195;50.868;4.382;2023-02-11T03:50:55;7.20;99.90
20070;DHT22;10195;50.868;4.382;2023-02-11T03:53:21;7.30;99.90
20070;DHT22;10195;50.868;4.382;2023-02-11T03:55:49;7.30;99.90
20070;DHT22;10195;50.868;4.382;2023-02-11T03:58:15;7.30;99.90
20070;DHT22;10195;50.868;4.382;2023-02-11T04:00:42;7.20;99.90
20070;DHT22;10195;50.868;4.382;2023-02-11T04:03:08;7.20;99.90
20070;DHT22;10195;50.868;4.382;2023-02-11T04:05:35;7.20;99.90
20070;DHT22;10195;50.868;4.382;2023-02-11T04:08:02;7.40;99.90
20070;DHT22;10195;50.868;4.382;2023-02-11T04:10:28;7.40;99.90
20070;DHT22;10195;50.868;4.382;2023-02-11T04:12:54;7.50;99.90
20070;DHT22;10195;50.868;4.382;2023-02-11T04:15:19;7.50;99.90
20070;DHT22;10195;50.868;4.382;2023-02-11T04:17:45;7.50;99.90
20070;DHT22;10195;50.868;4.382;2023-02-11T04:20:11;7.40;99.90
20070;DHT22;10195;50.868;4.382;2023-02-11T04:22:37;7.50;99.90
20070;DHT22;10195;50.868;4.382;2023-02-11T04:25:04;7.50;99.90
20070;DHT22;10195;50.868;4.382;2023-02-11T04:27:30;7.50;99.90
20070;DHT22;10195;50.868;4.382;2023-02-11T04:29:56;7.60;99.90
20070;DHT22;10195;50.868;4.382;2023-02-11T04:32:22;7.70;99.90
20070;DHT22;10195;50.868;4.382;2023-02-11T04:34:47;7.70;99.90
20070;DHT22;10195;50.868;4.382;2023-02-11T04:37:13;7.70;99.90
20070;DHT22;10195;50.868;4.382;2023-02-11T04:39:39;7.70;99.90
20070;DHT22;10195;50.868;4.382;2023-02-11T04:42:05;7.70;99.90
20070;DHT22;10195;50.868;4.382;2023-02-11T04:44:31;7.70;99.90
20070;DHT22;10195;50.868;4.382;2023-02-11T04:46:57;7.60;99.90
20070;DHT22;10195;50.868;4.382;2023-02-11T04:49:23;7.60;99.90
20070;DHT22;10195;50.868;4.382;2023-02-11T04:51:49;7.70;99.90
20070;DHT22;10195;50.868;4.382;2023-02-11T04:54:15;7.70;99.90
20070;DHT22;10195;50.868;4.382;2023-02-11T04:56:41;7.70;99.90
20070;DHT22;10195;50.868;4.382;2023-02-11T04:59:06;7.80;99.90
20070;DHT22;10195;50.868;4.382;2023-02-11T05:01:32;7.80;99.90
20070;DHT22;10195;50.868;4.382;2023-02-11T05:03:58;7.80;99.90
20070;DHT22;10195;50.868;4.382;2023-02-11T05:06:24;7.80;99.90
20070;DHT22;10195;50.868;4.382;2023-02-11T05:08:50;7.80;99.90
20070;DHT22;10195;50.868;4.382;2023-02-11T05:11:21;7.70;99.90
20070;DHT22;10195;50.868;4.382;2023-02-11T05:13:47;7.70;99.90
20070;DHT22;10195;50.868;4.382;2023-02-11T05:16:14;7.70;99.90
20070;DHT22;10195;50.868;4.382;2023-02-11T05:18:41;7.70;99.90
20070;DHT22;10195;50.868;4.382;2023-02-11T05:21:12;7.60;99.90
20070;DHT22;10195;50.868;4.382;2023-02-11T05:23:39;7.60;99.90
20070;DHT22;10195;50.868;4.382;2023-02-11T05:26:05;7.60;99.90
20070;DHT22;10195;50.868;4.382;2023-02-11T05:28:31;7.60;99.90
20070;DHT22;10195;50.868;4.382;2023-02-11T05:30:58;7.60;99.90
20070;DHT22;10195;50.868;4.382;2023-02-11T05:33:24;7.70;99.90
20070;DHT22;10195;50.868;4.382;2023-02-11T05:35:50;7.70;99.90
20070;DHT22;10195;50.868;4.382;2023-02-11T05:38:15;7.60;99.90
20070;DHT22;10195;50.868;4.382;2023-02-11T05:40:41;7.60;99.90
20070;DHT22;10195;50.868;4.382;2023-02-11T05:43:07;7.50;99.90
20070;DHT22;10195;50.868;4.382;2023-02-11T05:45:33;7.50;99.90
20070;DHT22;10195;50.868;4.382;2023-02-11T05:47:59;7.50;99.90
20070;DHT22;10195;50.868;4.382;2023-02-11T05:50:25;7.50;99.90
20070;DHT22;10195;50.868;4.382;2023-02-11T05:52:50;7.50;99.90
20070;DHT22;10195;50.868;4.382;2023-02-11T05:55:16;7.50;99.90
20070;DHT22;10195;50.868;4.382;2023-02-11T05:57:42;7.50;99.90
20070;DHT22;10195;50.868;4.382;2023-02-11T06:00:08;7.60;99.90
20070;DHT22;10195;50.868;4.382;2023-02-11T06:02:34;7.60;99.90
20070;DHT22;10195;50.868;4.382;2023-02-11T06:05:00;7.60;99.90
20070;DHT22;10195;50.868;4.382;2023-02-11T06:07:25;7.70;99.90
20070;DHT22;10195;50.868;4.382;2023-02-11T06:09:51;7.70;99.90
20070;DHT22;10195;50.868;4.382;2023-02-11T06:12:17;7.70;99.90
20070;DHT22;10195;50.868;4.382;2023-02-11T06:14:43;7.70;99.90
20070;DHT22;10195;50.868;4.382;2023-02-11T06:17:09;7.80;99.90
20070;DHT22;10195;50.868;4.382;2023-02-11T06:19:34;7.70;99.90
20070;DHT22;10195;50.868;4.382;2023-02-11T06:22:00;7.70;99.90
20070;DHT22;10195;50.868;4.382;2023-02-11T06:24:26;7.80;99.90
20070;DHT22;10195;50.868;4.382;2023-02-11T06:26:51;7.80;99.90
20070;DHT22;10195;50.868;4.382;2023-02-11T06:29:17;7.80;99.90
20070;DHT22;10195;50.868;4.382;2023-02-11T06:31:43;7.80;99.90
20070;DHT22;10195;50.868;4.382;2023-02-11T06:34:08;7.90;99.90
20070;DHT22;10195;50.868;4.382;2023-02-11T06:36:35;7.90;99.90
20070;DHT22;10195;50.868;4.382;2023-02-11T06:39:02;8.00;99.90
20070;DHT22;10195;50.868;4.382;2023-02-11T06:41:28;8.00;99.90
20070;DHT22;10195;50.868;4.382;2023-02-11T06:43:54;8.00;99.90
20070;DHT22;10195;50.868;4.382;2023-02-11T06:46:20;8.00;99.90
20070;DHT22;10195;50.868;4.382;2023-02-11T06:48:45;8.00;99.90
20070;DHT22;10195;50.868;4.382;2023-02-11T06:51:13;7.90;99.90
20070;DHT22;10195;50.868;4.382;2023-02-11T06:53:44;7.90;99.90
20070;DHT22;10195;50.868;4.382;2023-02-11T06:56:16;7.90;99.90
20070;DHT22;10195;50.868;4.382;2023-02-11T06:58:42;7.80;99.90
20070;DHT22;10195;50.868;4.382;2023-02-11T07:01:13;7.70;99.90
20070;DHT22;10195;50.868;4.382;2023-02-11T07:03:41;7.80;99.90
20070;DHT22;10195;50.868;4.382;2023-02-11T07:06:18;7.80;99.90
20070;DHT22;10195;50.868;4.382;2023-02-11T07:08:45;7.90;99.90
20070;DHT22;10195;50.868;4.382;2023-02-11T07:11:20;7.80;99.90
20070;DHT22;10195;50.868;4.382;2023-02-11T07:13:49;7.90;99.90
20070;DHT22;10195;50.868;4.382;2023-02-11T07:16:16;8.00;99.90
20070;DHT22;10195;50.868;4.382;2023-02-11T07:18:43;8.00;99.90
20070;DHT22;10195;50.868;4.382;2023-02-11T07:21:11;8.10;99.90
20070;DHT22;10195;50.868;4.382;2023-02-11T07:23:37;8.00;99.90
20070;DHT22;10195;50.868;4.382;2023-02-11T07:26:05;8.00;99.90
20070;DHT22;10195;50.868;4.382;2023-02-11T07:28:33;8.10;99.90
20070;DHT22;10195;50.868;4.382;2023-02-11T07:30:59;8.00;99.90
20070;DHT22;10195;50.868;4.382;2023-02-11T07:33:24;8.00;99.90
20070;DHT22;10195;50.868;4.382;2023-02-11T07:35:50;8.00;99.90
20070;DHT22;10195;50.868;4.382;2023-02-11T07:38:15;8.10;99.90
20070;DHT22;10195;50.868;4.382;2023-02-11T07:40:41;8.00;99.90
20070;DHT22;10195;50.868;4.382;2023-02-11T07:43:07;8.00;99.90
20070;DHT22;10195;50.868;4.382;2023-02-11T07:45:32;8.10;99.90
20070;DHT22;10195;50.868;4.382;2023-02-11T07:47:58;8.10;99.90
20070;DHT22;10195;50.868;4.382;2023-02-11T07:50:23;8.10;99.90
20070;DHT22;10195;50.868;4.382;2023-02-11T07:52:49;8.10;99.90
20070;DHT22;10195;50.868;4.382;2023-02-11T07:55:15;8.10;99.90
20070;DHT22;10195;50.868;4.382;2023-02-11T07:57:40;8.20;99.90
20070;DHT22;10195;50.868;4.382;2023-02-11T08:00:06;8.30;99.90
20070;DHT22;10195;50.868;4.382;2023-02-11T08:02:32;8.30;99.90
20070;DHT22;10195;50.868;4.382;2023-02-11T08:04:57;8.30;99.90
20070;DHT22;10195;50.868;4.382;2023-02-11T08:07:23;8.20;99.90
20070;DHT22;10195;50.868;4.382;2023-02-11T08:09:49;8.20;99.90
20070;DHT22;10195;50.868;4.382;2023-02-11T08:12:15;8.20;99.90
20070;DHT22;10195;50.868;4.382;2023-02-11T08:14:40;8.20;99.90
20070;DHT22;10195;50.868;4.382;2023-02-11T08:17:06;8.30;99.90
20070;DHT22;10195;50.868;4.382;2023-02-11T08:19:32;8.30;99.90
20070;DHT22;10195;50.868;4.382;2023-02-11T08:21:57;8.30;99.90
20070;DHT22;10195;50.868;4.382;2023-02-11T08:24:25;8.40;99.90
20070;DHT22;10195;50.868;4.382;2023-02-11T08:26:50;8.50;99.90
20070;DHT22;10195;50.868;4.382;2023-02-11T08:29:16;8.40;99.90
20070;DHT22;10195;50.868;4.382;2023-02-11T08:31:45;8.30;99.90
20070;DHT22;10195;50.868;4.382;2023-02-11T08:34:11;8.30;99.90
20070;DHT22;10195;50.868;4.382;2023-02-11T08:36:39;8.40;99.90
20070;DHT22;10195;50.868;4.382;2023-02-11T08:39:12;8.40;99.90
20070;DHT22;10195;50.868;4.382;2023-02-11T08:41:38;8.30;99.90
20070;DHT22;10195;50.868;4.382;2023-02-11T08:44:04;8.30;99.90
20070;DHT22;10195;50.868;4.382;2023-02-11T08:46:30;8.30;99.90
20070;DHT22;10195;50.868;4.382;2023-02-11T08:48:55;8.40;99.90
20070;DHT22;10195;50.868;4.382;2023-02-11T08:51:24;8.40;99.90
20070;DHT22;10195;50.868;4.382;2023-02-11T08:53:52;8.40;99.90
20070;DHT22;10195;50.868;4.382;2023-02-11T08:56:19;8.40;99.90
20070;DHT22;10195;50.868;4.382;2023-02-11T08:58:45;8.40;99.90
20070;DHT22;10195;50.868;4.382;2023-02-11T09:01:17;8.40;99.90
20070;DHT22;10195;50.868;4.382;2023-02-11T09:03:44;8.50;99.90
20070;DHT22;10195;50.868;4.382;2023-02-11T09:06:11;8.40;99.90
20070;DHT22;10195;50.868;4.382;2023-02-11T09:08:40;8.40;99.90
20070;DHT22;10195;50.868;4.382;2023-02-11T09:11:07;8.40;99.90
20070;DHT22;10195;50.868;4.382;2023-02-11T09:13:33;8.30;99.90
20070;DHT22;10195;50.868;4.382;2023-02-11T09:15:59;8.30;99.90
20070;DHT22;10195;50.868;4.382;2023-02-11T09:18:25;8.30;99.90
20070;DHT22;10195;50.868;4.382;2023-02-11T09:20:57;8.30;99.90
20070;DHT22;10195;50.868;4.382;2023-02-11T09:23:26;8.40;99.90
20070;DHT22;10195;50.868;4.382;2023-02-11T09:25:51;8.40;99.90
20070;DHT22;10195;50.868;4.382;2023-02-11T09:28:17;8.40;99.90
20070;DHT22;10195;50.868;4.382;2023-02-11T09:30:42;8.40;99.90
20070;DHT22;10195;50.868;4.382;2023-02-11T09:33:08;8.30;99.90
20070;DHT22;10195;50.868;4.382;2023-02-11T09:35:34;8.30;99.90
20070;DHT22;10195;50.868;4.382;2023-02-11T09:37:59;8.40;99.90
20070;DHT22;10195;50.868;4.382;2023-02-11T09:40:25;8.50;99.90
20070;DHT22;10195;50.868;4.382;2023-02-11T09:43:06;8.70;99.90
20070;DHT22;10195;50.868;4.382;2023-02-11T09:45:35;8.70;99.90
20070;DHT22;10195;50.868;4.382;2023-02-11T09:48:12;8.90;99.90
20070;DHT22;10195;50.868;4.382;2023-02-11T09:50:42;9.00;99.90
20070;DHT22;10195;50.868;4.382;2023-02-11T09:53:26;9.00;99.90
20070;DHT22;10195;50.868;4.382;2023-02-11T09:55:58;9.10;99.90
20070;DHT22;10195;50.868;4.382;2023-02-11T09:58:25;9.20;99.90
20070;DHT22;10195;50.868;4.382;2023-02-11T10:01:06;9.20;99.90
20070;DHT22;10195;50.868;4.382;2023-02-11T10:06:39;9.20;99.90
20070;DHT22;10195;50.868;4.382;2023-02-11T10:22:40;9.20;99.90
20070;DHT22;10195;50.868;4.382;2023-02-11T10:27:47;9.40;99.90
20070;DHT22;10195;50.868;4.382;2023-02-11T10:35:49;9.20;99.90
20070;DHT22;10195;50.868;4.382;2023-02-11T10:38:15;9.20;99.90
20070;DHT22;10195;50.868;4.382;2023-02-11T10:40:40;9.20;99.90
20070;DHT22;10195;50.868;4.382;2023-02-11T10:43:13;9.10;99.90
20070;DHT22;10195;50.868;4.382;2023-02-11T10:45:53;9.10;99.90
20070;DHT22;10195;50.868;4.382;2023-02-11T10:48:49;9.30;99.90
20070;DHT22;10195;50.868;4.382;2023-02-11T10:51:31;9.30;99.90
20070;DHT22;10195;50.868;4.382;2023-02-11T10:56:40;9.60;99.90
20070;DHT22;10195;50.868;4.382;2023-02-11T11:01:59;9.60;99.90
20070;DHT22;10195;50.868;4.382;2023-02-11T11:06:54;9.80;99.90
20070;DHT22;10195;50.868;4.382;2023-02-11T11:09:28;9.80;99.90
20070;DHT22;10195;50.868;4.382;2023-02-11T11:11:57;9.90;99.90
20070;DHT22;10195;50.868;4.382;2023-02-11T11:14:24;10.00;99.90
20070;DHT22;10195;50.868;4.382;2023-02-11T11:16:54;10.00;99.90
20070;DHT22;10195;50.868;4.382;2023-02-11T11:19:22;10.10;99.90
20070;DHT22;10195;50.868;4.382;2023-02-11T11:21:52;10.00;99.90
20070;DHT22;10195;50.868;4.382;2023-02-11T11:24:28;10.00;99.90
20070;DHT22;10195;50.868;4.382;2023-02-11T11:27:01;10.00;99.90
20070;DHT22;10195;50.868;4.382;2023-02-11T11:29:42;10.10;99.90
20070;DHT22;10195;50.868;4.382;2023-02-11T11:32:19;10.20;99.90
20070;DHT22;10195;50.868;4.382;2023-02-11T11:34:55;10.20;99.90
20070;DHT22;10195;50.868;4.382;2023-02-11T11:37:31;10.20;99.90
20070;DHT22;10195;50.868;4.382;2023-02-11T11:42:29;10.10;99.90
20070;DHT22;10195;50.868;4.382;2023-02-11T11:47:50;10.20;99.90
20070;DHT22;10195;50.868;4.382;2023-02-11T11:53:09;10.30;99.90
20070;DHT22;10195;50.868;4.382;2023-02-11T11:55:46;10.30;99.90
20070;DHT22;10195;50.868;4.382;2023-02-11T11:58:16;10.30;99.90
20070;DHT22;10195;50.868;4.382;2023-02-11T12:00:45;10.20;99.90
20070;DHT22;10195;50.868;4.382;2023-02-11T12:06:20;10.00;99.90
20070;DHT22;10195;50.868;4.382;2023-02-11T12:11:35;10.10;99.90
20070;DHT22;10195;50.868;4.382;2023-02-11T12:19:44;10.00;99.90
20070;DHT22;10195;50.868;4.382;2023-02-11T12:22:28;10.00;99.90
20070;DHT22;10195;50.868;4.382;2023-02-11T12:28:18;10.00;99.90
20070;DHT22;10195;50.868;4.382;2023-02-11T12:31:04;10.10;99.90
20070;DHT22;10195;50.868;4.382;2023-02-11T12:42:15;10.40;99.90
20070;DHT22;10195;50.868;4.382;2023-02-11T12:45:11;10.50;99.90
20070;DHT22;10195;50.868;4.382;2023-02-11T12:47:56;10.60;99.90
20070;DHT22;10195;50.868;4.382;2023-02-11T12:56:02;10.40;99.90
20070;DHT22;10195;50.868;4.382;2023-02-11T12:58:31;10.40;99.90
20070;DHT22;10195;50.868;4.382;2023-02-11T13:01:19;10.40;99.90
20070;DHT22;10195;50.868;4.382;2023-02-11T13:06:19;10.40;99.90
20070;DHT22;10195;50.868;4.382;2023-02-11T13:09:10;10.50;99.90
20070;DHT22;10195;50.868;4.382;2023-02-11T13:11:40;10.50;99.90
20070;DHT22;10195;50.868;4.382;2023-02-11T13:14:15;10.40;99.90
20070;DHT22;10195;50.868;4.382;2023-02-11T13:16:48;10.50;99.90
20070;DHT22;10195;50.868;4.382;2023-02-11T13:19:40;10.40;99.90
20070;DHT22;10195;50.868;4.382;2023-02-11T13:22:24;10.50;99.90
20070;DHT22;10195;50.868;4.382;2023-02-11T13:25:05;10.50;99.90
20070;DHT22;10195;50.868;4.382;2023-02-11T13:27:43;10.40;99.90
20070;DHT22;10195;50.868;4.382;2023-02-11T13:30:32;10.30;99.90
20070;DHT22;10195;50.868;4.382;2023-02-11T13:35:38;10.30;99.90
20070;DHT22;10195;50.868;4.382;2023-02-11T13:38:39;10.40;99.90
20070;DHT22;10195;50.868;4.382;2023-02-11T13:41:22;10.50;99.90
20070;DHT22;10195;50.868;4.382;2023-02-11T13:47:03;10.30;99.90
20070;DHT22;10195;50.868;4.382;2023-02-11T13:49:35;10.20;99.90
20070;DHT22;10195;50.868;4.382;2023-02-11T13:52:34;10.20;99.90
20070;DHT22;10195;50.868;4.382;2023-02-11T13:55:14;10.20;99.90
20070;DHT22;10195;50.868;4.382;2023-02-11T13:57:44;10.10;99.90
20070;DHT22;10195;50.868;4.382;2023-02-11T14:03:37;10.30;99.90
20070;DHT22;10195;50.868;4.382;2023-02-11T14:06:22;10.50;99.90
20070;DHT22;10195;50.868;4.382;2023-02-11T14:11:45;10.40;99.90
20070;DHT22;10195;50.868;4.382;2023-02-11T14:14:29;10.50;99.90
20070;DHT22;10195;50.868;4.382;2023-02-11T14:19:41;10.40;99.90
20070;DHT22;10195;50.868;4.382;2023-02-11T14:22:20;10.50;99.90
20070;DHT22;10195;50.868;4.382;2023-02-11T14:24:59;10.50;99.90
20070;DHT22;10195;50.868;4.382;2023-02-11T14:27:41;10.50;99.90
20070;DHT22;10195;50.868;4.382;2023-02-11T14:30:36;10.50;99.90
20070;DHT22;10195;50.868;4.382;2023-02-11T14:33:21;10.50;99.90
20070;DHT22;10195;50.868;4.382;2023-02-11T14:35:55;10.50;99.90
20070;DHT22;10195;50.868;4.382;2023-02-11T14:38:27;10.40;99.90
20070;DHT22;10195;50.868;4.382;2023-02-11T14:41:26;10.40;99.90
20070;DHT22;10195;50.868;4.382;2023-02-11T14:43:59;10.40;99.90
20070;DHT22;10195;50.868;4.382;2023-02-11T14:46:27;10.40;99.90
20070;DHT22;10195;50.868;4.382;2023-02-11T14:48:59;10.50;99.90
20070;DHT22;10195;50.868;4.382;2023-02-11T14:51:33;10.50;99.90
20070;DHT22;10195;50.868;4.382;2023-02-11T14:54:21;10.50;99.90
20070;DHT22;10195;50.868;4.382;2023-02-11T14:57:07;10.40;99.90
20070;DHT22;10195;50.868;4.382;2023-02-11T14:59:34;10.40;99.90
20070;DHT22;10195;50.868;4.382;2023-02-11T15:02:00;10.40;99.90
20070;DHT22;10195;50.868;4.382;2023-02-11T15:04:29;10.40;99.90
20070;DHT22;10195;50.868;4.382;2023-02-11T15:06:56;10.50;99.90
20070;DHT22;10195;50.868;4.382;2023-02-11T15:09:33;10.50;99.90
20070;DHT22;10195;50.868;4.382;2023-02-11T15:12:02;10.60;99.90
20070;DHT22;10195;50.868;4.382;2023-02-11T15:14:31;10.50;99.90
20070;DHT22;10195;50.868;4.382;2023-02-11T15:17:01;10.30;99.90
20070;DHT22;10195;50.868;4.382;2023-02-11T15:19:38;10.30;99.90
20070;DHT22;10195;50.868;4.382;2023-02-11T15:22:27;10.30;99.90
20070;DHT22;10195;50.868;4.382;2023-02-11T15:25:07;10.40;99.90
20070;DHT22;10195;50.868;4.382;2023-02-11T15:27:43;10.40;99.90
20070;DHT22;10195;50.868;4.382;2023-02-11T15:32:57;10.40;99.90
20070;DHT22;10195;50.868;4.382;2023-02-11T15:35:36;10.50;99.90
20070;DHT22;10195;50.868;4.382;2023-02-11T15:38:03;10.50;99.90
20070;DHT22;10195;50.868;4.382;2023-02-11T15:40:31;10.60;99.90
20070;DHT22;10195;50.868;4.382;2023-02-11T15:43:07;10.60;99.90
20070;DHT22;10195;50.868;4.382;2023-02-11T15:48:24;10.70;99.90
20070;DHT22;10195;50.868;4.382;2023-02-11T15:51:21;10.60;99.90
20070;DHT22;10195;50.868;4.382;2023-02-11T15:53:54;10.60;99.90
20070;DHT22;10195;50.868;4.382;2023-02-11T15:56:22;10.70;99.90
20070;DHT22;10195;50.868;4.382;2023-02-11T15:58:52;10.60;99.90
20070;DHT22;10195;50.868;4.382;2023-02-11T16:01:18;10.70;99.90
20070;DHT22;10195;50.868;4.382;2023-02-11T16:03:49;10.70;99.90
20070;DHT22;10195;50.868;4.382;2023-02-11T16:06:24;10.70;99.90
20070;DHT22;10195;50.868;4.382;2023-02-11T16:11:54;10.50;99.90
20070;DHT22;10195;50.868;4.382;2023-02-11T16:14:26;10.50;99.90
20070;DHT22;10195;50.868;4.382;2023-02-11T16:17:01;10.50;99.90
20070;DHT22;10195;50.868;4.382;2023-02-11T16:19:28;10.50;99.90
20070;DHT22;10195;50.868;4.382;2023-02-11T16:21:56;10.40;99.90
20070;DHT22;10195;50.868;4.382;2023-02-11T16:24:28;10.40;99.90
20070;DHT22;10195;50.868;4.382;2023-02-11T16:27:00;10.40;99.90
20070;DHT22;10195;50.868;4.382;2023-02-11T16:29:31;10.40;99.90
20070;DHT22;10195;50.868;4.382;2023-02-11T16:32:20;10.30;99.90
20070;DHT22;10195;50.868;4.382;2023-02-11T16:34:45;10.30;99.90
20070;DHT22;10195;50.868;4.382;2023-02-11T16:37:11;10.20;99.90
20070;DHT22;10195;50.868;4.382;2023-02-11T16:39:37;10.30;99.90
20070;DHT22;10195;50.868;4.382;2023-02-11T16:42:03;10.30;99.90
20070;DHT22;10195;50.868;4.382;2023-02-11T16:44:31;10.40;99.90
20070;DHT22;10195;50.868;4.382;2023-02-11T16:46:58;10.50;99.90
20070;DHT22;10195;50.868;4.382;2023-02-11T16:49:30;10.50;99.90
20070;DHT22;10195;50.868;4.382;2023-02-11T16:52:01;10.40;99.90
20070;DHT22;10195;50.868;4.382;2023-02-11T16:54:29;10.40;99.90
20070;DHT22;10195;50.868;4.382;2023-02-11T16:56:56;10.30;99.90
20070;DHT22;10195;50.868;4.382;2023-02-11T16:59:22;10.30;99.90
20070;DHT22;10195;50.868;4.382;2023-02-11T17:01:49;10.30;99.90
20070;DHT22;10195;50.868;4.382;2023-02-11T17:04:29;10.30;99.90
20070;DHT22;10195;50.868;4.382;2023-02-11T17:06:55;10.30;99.90
20070;DHT22;10195;50.868;4.382;2023-02-11T17:09:23;10.40;99.90
20070;DHT22;10195;50.868;4.382;2023-02-11T17:11:49;10.40;99.90
20070;DHT22;10195;50.868;4.382;2023-02-11T17:14:16;10.40;99.90
20070;DHT22;10195;50.868;4.382;2023-02-11T17:16:42;10.50;99.90
20070;DHT22;10195;50.868;4.382;2023-02-11T17:19:12;10.50;99.90
20070;DHT22;10195;50.868;4.382;2023-02-11T17:21:46;10.50;99.90
20070;DHT22;10195;50.868;4.382;2023-02-11T17:24:12;10.50;99.90
20070;DHT22;10195;50.868;4.382;2023-02-11T17:26:42;10.50;99.90
20070;DHT22;10195;50.868;4.382;2023-02-11T17:29:11;10.40;99.90
20070;DHT22;10195;50.868;4.382;2023-02-11T17:31:38;10.30;99.90
20070;DHT22;10195;50.868;4.382;2023-02-11T17:34:04;10.30;99.90
20070;DHT22;10195;50.868;4.382;2023-02-11T17:36:29;10.30;99.90
20070;DHT22;10195;50.868;4.382;2023-02-11T17:38:59;10.30;99.90
20070;DHT22;10195;50.868;4.382;2023-02-11T17:41:25;10.30;99.90
20070;DHT22;10195;50.868;4.382;2023-02-11T17:43:51;10.30;99.90
20070;DHT22;10195;50.868;4.382;2023-02-11T17:46:17;10.30;99.90
20070;DHT22;10195;50.868;4.382;2023-02-11T17:48:42;10.30;99.90
20070;DHT22;10195;50.868;4.382;2023-02-11T17:51:32;10.40;99.90
20070;DHT22;10195;50.868;4.382;2023-02-11T17:54:00;10.50;99.90
20070;DHT22;10195;50.868;4.382;2023-02-11T17:56:26;10.40;99.90
20070;DHT22;10195;50.868;4.382;2023-02-11T17:58:51;10.40;99.90
20070;DHT22;10195;50.868;4.382;2023-02-11T18:01:18;10.40;99.90
20070;DHT22;10195;50.868;4.382;2023-02-11T18:03:44;10.30;99.90
20070;DHT22;10195;50.868;4.382;2023-02-11T18:06:10;10.40;99.90
20070;DHT22;10195;50.868;4.382;2023-02-11T18:08:37;10.30;99.90
20070;DHT22;10195;50.868;4.382;2023-02-11T18:11:07;10.30;99.90